Estación Meteorológica Peña el Pijo (Robertgarden) [ 02/03/23 02:58:28 CET ]

Fecha Hora Presion(HPa) Temp (°C) Humedad % Rocio (°C) Viento ( m/s) Direccion Lluvia 1Hora(mm) Lluvia 24H(mm) LLuvia Total(mm)
2012-Dec-05 01:01:12 1010.700 5.8 73 1.3         178.19
2012-Dec-05 02:04:13 1010.000 5.6 70 0.6         178.19
2012-Dec-05 03:01:12 1009.600 5.6 70 0.6         178.19
2012-Dec-05 04:01:16 1009.300 4.9 70 -0.1         178.19
2012-Dec-05 05:01:13 1008.400 4.4 70 -0.6 2.7 SSW     178.19
2012-Dec-05 06:01:12 1008.300 3.9 71 -0.9         178.19
2012-Dec-05 07:01:14 1008.600 3.4 70 -1.5         178.19
2012-Dec-05 08:01:13 1009.000 2.6 72 -1.9         178.19
2012-Dec-05 09:01:13 1009.300 3.5 73 -0.9         178.19
2012-Dec-05 10:01:11 1010.200 7.3 62 0.5         178.19
2012-Dec-05 11:01:13 1010.700 6.9 59 -0.6         178.19
2012-Dec-05 12:01:12 1010.400 5.9 60 -1.3         178.19
2012-Dec-05 13:01:14 1009.900 5.6 62 -1.1 2.8 SSW     178.19
2012-Dec-05 14:01:12 1009.300 6.1 61 -0.9         178.19
2012-Dec-05 15:01:16 1009.300 6.1 59 -1.4         178.19
2012-Dec-05 16:01:13 1009.100 5.4 62 -1.3         178.19
2012-Dec-05 17:01:13 1009.200 4.3 65 -1.8         178.19
2012-Dec-05 18:01:12 1009.500 3.6 65 -2.4         178.19
2012-Dec-05 19:01:16 1009.600 1.9 66 -3.8         178.19
2012-Dec-05 20:01:14 1010.700 1.1 69 -4.0         178.19
2012-Dec-05 21:01:13 1010.500 1.3 72 -3.2         178.19
2012-Dec-05 22:01:14 1010.700 -0.4 74 -4.5         178.19
2012-Dec-05 23:01:12 1010.600 -0.9 74 -5.0         178.19

Temperatura Máxima:    Temperatura Mínima:
Presión Máxima:1010.700 Hpa    Presión Mínima:1008.300 Hpa


Volver